Time;durP1;ratioP1;P1;durP2;ratioP2;P2;SDS_P1;SDS_P2;PMS_P1;PMS_P2;Temp;Humidity;BMP_temperature;BMP_pressure;BME280_temperature;BME280_humidity;BME280_pressure;Samples;Min_cycle;Max_cycle;Signal;HPM_P1;HPM_P2
2023/02/18 00:04:13;;;;;;;2.90;1.10;;;;;;;6.52;77.23;99087.00;217701;1259;139040;-69
2023/02/18 00:09:16;;;;;;;1.10;0.70;;;;;;;6.47;76.78;99100.61;217630;1260;139345;-67
2023/02/18 00:14:21;;;;;;;3.30;0.90;;;;;;;6.40;76.41;99125.98;217571;1257;139993;-70
2023/02/18 00:19:25;;;;;;;2.10;0.90;;;;;;;6.38;76.45;99133.39;217622;1259;140183;-68
2023/02/18 00:24:30;;;;;;;2.40;0.70;;;;;;;6.33;75.99;99136.47;217745;1260;138767;-70
2023/02/18 00:29:34;;;;;;;3.90;0.80;;;;;;;6.26;75.62;99131.98;218184;1257;139135;-69
2023/02/18 00:34:39;;;;;;;5.90;1.00;;;;;;;6.25;75.10;99147.71;217650;1259;139931;-70
2023/02/18 00:39:44;;;;;;;1.20;0.80;;;;;;;6.26;75.27;99161.63;217788;1260;140221;-70
2023/02/18 00:44:49;;;;;;;1.90;0.90;;;;;;;6.27;74.61;99162.27;217797;1257;139372;-68
2023/02/18 00:49:54;;;;;;;4.20;1.10;;;;;;;6.25;74.72;99163.50;217683;1259;139933;-71
2023/02/18 00:54:58;;;;;;;5.50;1.10;;;;;;;6.23;74.68;99166.50;217358;1256;139587;-71
2023/02/18 01:00:05;;;;;;;6.20;2.00;;;;;;;6.20;74.76;99165.84;217635;1257;141957;-69
2023/02/18 01:05:14;;;;;;;1.50;1.20;;;;;;;6.13;74.68;99169.23;217592;1257;138838;-69
2023/02/18 01:10:18;;;;;;;7.40;0.90;;;;;;;6.02;74.42;99162.66;219199;1257;139122;-70
2023/02/18 01:15:23;;;;;;;6.10;2.50;;;;;;;5.94;74.38;99168.06;219469;1257;140732;-70
2023/02/18 01:20:29;;;;;;;3.40;1.00;;;;;;;5.91;74.15;99161.86;218858;1260;140632;-70
2023/02/18 01:25:34;;;;;;;6.80;3.50;;;;;;;5.88;74.61;99163.90;217949;1261;139665;-69
2023/02/18 01:30:39;;;;;;;2.70;2.00;;;;;;;5.86;74.29;99164.92;218925;1257;140030;-70
2023/02/18 01:35:43;;;;;;;3.80;1.10;;;;;;;5.83;74.70;99165.41;217964;1257;138740;-69
2023/02/18 01:40:50;;;;;;;1.40;1.20;;;;;;;5.79;73.87;99151.95;218368;1257;138585;-70
2023/02/18 01:46:07;;;;;;;8.30;1.60;;;;;;;5.74;73.80;99170.55;218496;1257;140071;-69
2023/02/18 01:51:27;;;;;;;1.20;0.80;;;;;;;5.64;73.84;99176.23;217642;1260;140424;-69
2023/02/18 01:56:56;;;;;;;6.30;1.30;;;;;;;5.59;73.51;99177.38;217802;1260;139122;-67
2023/02/18 02:02:00;;;;;;;5.70;0.90;;;;;;;5.59;73.46;99183.34;217579;1257;139637;-66
2023/02/18 02:07:05;;;;;;;3.70;0.90;;;;;;;5.58;73.03;99183.19;217993;1258;139987;-67
2023/02/18 02:12:43;;;;;;;2.40;0.90;;;;;;;5.53;73.23;99187.95;217675;1259;139428;-67
2023/02/18 02:18:09;;;;;;;9.00;1.90;;;;;;;5.49;73.24;99186.16;217796;1259;138933;-70
2023/02/18 02:23:42;;;;;;;6.00;1.70;;;;;;;5.47;73.52;99183.91;217770;1262;140993;-69
2023/02/18 02:29:18;;;;;;;6.10;1.50;;;;;;;5.41;73.29;99189.28;217927;1257;140029;-70
2023/02/18 02:34:27;;;;;;;10.20;1.50;;;;;;;5.35;73.76;99191.39;218308;1257;138783;-66
2023/02/18 02:39:38;;;;;;;7.80;2.00;;;;;;;5.28;73.68;99187.40;217639;1260;139871;-69
2023/02/18 02:45:03;;;;;;;7.80;1.80;;;;;;;5.22;73.62;99189.05;217939;1257;139956;-67
2023/02/18 02:50:19;;;;;;;7.10;1.90;;;;;;;5.19;73.63;99199.48;218119;1260;138729;-69
2023/02/18 02:55:24;;;;;;;6.10;1.50;;;;;;;5.13;73.63;99202.35;217658;1257;141385;-67
2023/02/18 03:01:01;;;;;;;6.10;1.00;;;;;;;5.06;73.99;99209.73;220523;1257;140678;-68
2023/02/18 03:06:32;;;;;;;3.60;1.00;;;;;;;5.06;73.47;99218.60;219794;1258;204445;-68
2023/02/18 03:12:07;;;;;;;9.90;2.90;;;;;;;5.03;73.90;99221.13;220498;1257;140052;-68
2023/02/18 03:17:37;;;;;;;6.10;1.40;;;;;;;4.97;73.60;99223.67;220268;1257;139104;-67
2023/02/18 03:22:47;;;;;;;2.10;1.50;;;;;;;4.96;73.51;99229.29;218528;1258;140017;-68
2023/02/18 03:28:17;;;;;;;1.80;1.10;;;;;;;4.90;73.55;99230.05;218616;1257;230927;-67
2023/02/18 03:34:00;;;;;;;3.70;1.20;;;;;;;4.83;74.00;99227.33;217688;1257;139100;-66
2023/02/18 03:39:18;;;;;;;2.00;1.00;;;;;;;4.79;73.88;99229.46;218551;1257;139031;-66
2023/02/18 03:44:25;;;;;;;7.40;1.30;;;;;;;4.72;73.79;99233.13;217730;1257;138936;-68
2023/02/18 03:49:30;;;;;;;1.90;1.60;;;;;;;4.71;74.22;99247.84;217662;1260;138761;-68
2023/02/18 03:54:35;;;;;;;10.10;2.00;;;;;;;4.77;74.42;99261.77;217591;1260;139372;-68
2023/02/18 03:59:38;;;;;;;3.40;0.70;;;;;;;4.80;74.39;99267.36;217688;1260;139983;-68
2023/02/18 04:04:43;;;;;;;6.70;1.80;;;;;;;4.82;74.61;99271.09;217537;1260;139328;-69
2023/02/18 04:09:48;;;;;;;2.30;1.50;;;;;;;4.88;74.60;99283.83;217784;1260;140643;-69
2023/02/18 04:14:53;;;;;;;6.40;1.90;;;;;;;4.89;74.62;99281.86;218743;1260;138986;-69
2023/02/18 04:19:57;;;;;;;4.10;1.50;;;;;;;4.89;74.70;99283.82;218094;1257;139870;-68
2023/02/18 04:25:01;;;;;;;6.90;1.70;;;;;;;4.95;74.54;99290.20;217753;1257;139412;-68
2023/02/18 04:30:06;;;;;;;3.90;1.40;;;;;;;4.96;74.33;99293.13;217648;1260;138681;-68
2023/02/18 04:35:10;;;;;;;4.90;1.30;;;;;;;4.92;74.62;99291.03;218638;1257;138425;-68
2023/02/18 04:40:16;;;;;;;6.80;1.60;;;;;;;4.91;74.48;99284.77;217799;1257;141781;-69
2023/02/18 04:45:21;;;;;;;5.10;1.50;;;;;;;4.89;74.36;99278.00;217810;1256;140307;-73
2023/02/18 04:50:26;;;;;;;7.70;1.50;;;;;;;4.84;74.52;99292.25;218857;1257;140624;-72
2023/02/18 04:55:30;;;;;;;9.00;2.90;;;;;;;4.83;74.57;99286.05;218495;1258;154562;-72
2023/02/18 05:00:34;;;;;;;8.90;1.90;;;;;;;4.81;74.25;99289.02;218124;1260;139699;-72
2023/02/18 05:05:40;;;;;;;2.90;1.80;;;;;;;4.78;74.52;99290.89;217921;1260;139025;-70
2023/02/18 05:10:46;;;;;;;4.00;2.50;;;;;;;4.74;74.43;99288.86;219045;1257;139463;-71
2023/02/18 05:15:51;;;;;;;2.10;1.20;;;;;;;4.74;74.51;99287.48;218764;1257;139677;-67
2023/02/18 05:20:56;;;;;;;7.70;1.50;;;;;;;4.72;74.63;99307.84;217815;1260;139240;-66
2023/02/18 05:26:00;;;;;;;4.30;1.80;;;;;;;4.70;74.55;99295.04;217726;1260;140108;-65
2023/02/18 05:31:04;;;;;;;6.50;2.10;;;;;;;4.66;74.45;99288.52;218555;1257;160306;-66
2023/02/18 05:36:10;;;;;;;5.70;1.10;;;;;;;4.61;74.54;99289.82;217953;1260;139809;-66
2023/02/18 05:41:15;;;;;;;2.00;1.70;;;;;;;4.59;74.30;99291.17;217583;1259;138776;-67
2023/02/18 05:46:19;;;;;;;5.40;1.60;;;;;;;4.56;74.46;99288.08;217725;1257;139007;-66
2023/02/18 05:51:24;;;;;;;7.60;2.00;;;;;;;4.52;74.75;99300.05;217521;1259;140068;-66
2023/02/18 05:56:29;;;;;;;1.40;1.20;;;;;;;4.52;74.68;99305.50;217823;1260;138891;-67
2023/02/18 06:01:33;;;;;;;3.90;1.40;;;;;;;4.53;74.44;99313.66;217743;1260;141710;-67
2023/02/18 06:06:38;;;;;;;4.60;1.90;;;;;;;4.49;74.76;99311.99;218438;1257;139947;-69
2023/02/18 06:11:43;;;;;;;3.40;2.10;;;;;;;4.46;74.83;99326.77;217608;1260;139898;-70
2023/02/18 06:16:49;;;;;;;4.40;1.60;;;;;;;4.49;74.82;99336.23;218133;1256;141305;-72
2023/02/18 06:21:55;;;;;;;8.00;2.30;;;;;;;4.48;74.78;99327.30;219230;1257;139142;-69
2023/02/18 06:27:03;;;;;;;6.70;1.90;;;;;;;4.45;74.68;99345.82;218600;1257;139384;-69
2023/02/18 06:32:07;;;;;;;6.80;2.00;;;;;;;4.45;74.65;99344.73;217766;1258;139198;-69
2023/02/18 06:37:12;;;;;;;8.80;1.90;;;;;;;4.48;74.76;99351.91;218685;1257;139365;-69
2023/02/18 06:42:16;;;;;;;1.90;1.30;;;;;;;4.53;74.77;99357.23;218466;1257;139278;-68
2023/02/18 06:47:22;;;;;;;6.10;1.70;;;;;;;4.64;74.60;99356.59;217789;1256;140276;-68
2023/02/18 06:52:26;;;;;;;5.50;1.40;;;;;;;4.71;74.75;99366.30;219853;1256;139241;-69
2023/02/18 06:57:31;;;;;;;8.80;1.90;;;;;;;4.78;74.48;99365.17;218088;1257;140155;-69
2023/02/18 07:02:36;;;;;;;4.10;2.00;;;;;;;4.90;74.32;99374.17;220514;1256;140343;-68
2023/02/18 07:07:40;;;;;;;11.00;2.80;;;;;;;5.09;74.26;99374.25;217826;1257;139222;-70
2023/02/18 07:12:45;;;;;;;3.60;2.30;;;;;;;5.21;73.86;99379.45;217474;1257;139362;-69
2023/02/18 07:17:52;;;;;;;4.60;1.90;;;;;;;5.32;73.43;99369.01;217505;1260;140940;-68
2023/02/18 07:22:56;;;;;;;4.50;1.40;;;;;;;5.54;73.41;99383.02;217485;1258;140886;-69
2023/02/18 07:28:00;;;;;;;3.40;2.50;;;;;;;5.80;73.29;99397.71;218214;1257;138949;-71
2023/02/18 07:33:03;;;;;;;3.70;1.40;;;;;;;5.84;72.50;99394.41;217685;1256;139354;-71
2023/02/18 07:38:07;;;;;;;11.20;4.00;;;;;;;5.88;72.53;99393.27;217384;1257;139875;-69
2023/02/18 07:43:11;;;;;;;8.00;1.70;;;;;;;5.91;72.68;99399.45;218265;1256;141795;-69
2023/02/18 07:48:16;;;;;;;4.70;2.10;;;;;;;5.99;71.95;99402.23;217494;1260;140080;-70
2023/02/18 07:53:20;;;;;;;7.90;2.30;;;;;;;5.97;71.96;99405.05;217452;1257;140091;-68
2023/02/18 07:58:33;;;;;;;4.10;1.40;;;;;;;5.98;71.88;99408.17;217388;1257;140845;-71
2023/02/18 08:03:40;;;;;;;13.20;1.90;;;;;;;6.09;72.56;99414.82;217581;1256;139212;-69
2023/02/18 08:08:45;;;;;;;8.60;1.90;;;;;;;6.33;72.40;99418.36;217606;1256;139048;-69
2023/02/18 08:13:49;;;;;;;11.20;2.00;;;;;;;6.42;72.27;99412.41;217549;1257;140112;-70
2023/02/18 08:18:53;;;;;;;10.10;2.90;;;;;;;6.51;72.02;99415.77;218351;1256;140191;-71
2023/02/18 08:23:59;;;;;;;5.70;2.20;;;;;;;6.86;71.87;99412.81;217518;1256;139737;-70
2023/02/18 08:29:03;;;;;;;7.60;2.50;;;;;;;7.11;71.56;99411.02;218804;1256;142481;-71
2023/02/18 08:34:08;;;;;;;9.30;2.20;;;;;;;7.27;71.29;99405.30;217125;1260;139498;-71
2023/02/18 08:39:12;;;;;;;8.30;2.20;;;;;;;7.36;70.82;99407.02;217132;1257;138900;-72
2023/02/18 08:44:16;;;;;;;6.00;2.10;;;;;;;7.30;70.09;99400.33;219530;1256;319183;-68
2023/02/18 08:49:22;;;;;;;4.80;1.60;;;;;;;7.11;70.06;99412.93;218145;1257;139877;-68
2023/02/18 08:54:27;;;;;;;14.10;4.20;;;;;;;6.85;69.76;99413.89;217505;1257;139276;-73
2023/02/18 08:59:32;;;;;;;6.60;1.90;;;;;;;6.64;70.38;99418.16;217296;1256;139976;-69
2023/02/18 09:04:36;;;;;;;4.50;1.60;;;;;;;6.52;70.43;99411.00;218021;1256;139582;-70
2023/02/18 09:09:40;;;;;;;11.10;2.10;;;;;;;6.41;70.56;99418.26;218889;1256;140000;-70
2023/02/18 09:14:48;;;;;;;4.50;1.90;;;;;;;6.30;70.59;99410.48;220440;1256;140562;-68
2023/02/18 09:19:52;;;;;;;7.90;2.50;;;;;;;6.25;70.80;99404.08;220256;1257;140661;-71
2023/02/18 09:24:55;;;;;;;6.70;2.10;;;;;;;6.26;70.66;99406.39;220342;1256;141074;-71
2023/02/18 09:29:58;;;;;;;5.60;2.30;;;;;;;6.21;70.30;99414.27;220203;1256;141040;-72
2023/02/18 09:35:04;;;;;;;5.40;2.00;;;;;;;6.20;70.62;99414.58;220342;1256;140610;-69
2023/02/18 09:40:25;;;;;;;8.30;3.30;;;;;;;6.26;70.46;99412.59;220211;1256;139585;-70
2023/02/18 09:45:29;;;;;;;9.30;2.80;;;;;;;6.37;70.31;99416.84;220216;1256;139893;-72
2023/02/18 09:50:34;;;;;;;8.70;4.00;;;;;;;6.44;70.28;99418.95;220373;1256;140599;-71
2023/02/18 09:55:40;;;;;;;24.70;17.90;;;;;;;6.53;70.07;99422.23;220231;1259;139621;-70
2023/02/18 10:00:49;;;;;;;6.10;3.20;;;;;;;6.54;70.28;99415.50;220281;1256;140409;-69
2023/02/18 10:06:04;;;;;;;3.10;2.00;;;;;;;6.54;69.66;99416.11;220284;1257;140039;-68
2023/02/18 10:15:00;;;;;;;3.60;2.20;;;;;;;6.68;69.86;99430.64;214906;1297;659091;-69
2023/02/18 10:20:05;;;;;;;10.30;2.30;;;;;;;6.73;69.47;99420.23;216099;1273;137781;-67
2023/02/18 10:25:18;;;;;;;8.90;2.50;;;;;;;6.80;69.42;99409.65;216392;1272;290798;-67
2023/02/18 10:30:32;;;;;;;9.60;2.60;;;;;;;6.89;69.38;99398.66;216276;1268;138904;-69
2023/02/18 10:36:15;;;;;;;6.30;2.50;;;;;;;7.03;69.05;99379.62;216917;1271;138365;-68
2023/02/18 10:41:38;;;;;;;5.40;2.10;;;;;;;7.31;69.23;99360.52;215999;1272;139306;-70
2023/02/18 10:47:18;;;;;;;7.10;1.60;;;;;;;7.59;69.18;99364.23;219228;1267;139479;-70
2023/02/18 10:52:26;;;;;;;10.30;2.20;;;;;;;7.75;68.66;99363.23;219041;1270;138918;-70
2023/02/18 10:57:32;;;;;;;8.70;1.50;;;;;;;7.83;68.29;99364.64;219221;1267;139375;-75
2023/02/18 11:02:38;;;;;;;9.50;2.70;;;;;;;8.06;68.18;99346.17;219214;1267;138708;-70
2023/02/18 11:07:49;;;;;;;7.70;3.10;;;;;;;8.24;67.90;99333.55;216389;1268;140302;-72
2023/02/18 11:12:57;;;;;;;7.50;3.20;;;;;;;8.29;67.16;99325.92;216202;1272;139158;-70
2023/02/18 11:18:29;;;;;;;6.40;3.20;;;;;;;8.17;66.77;99315.91;217213;1263;140271;-70
2023/02/18 11:23:49;;;;;;;2.80;2.60;;;;;;;8.24;67.17;99315.18;216766;1260;138054;-71
2023/02/18 11:29:00;;;;;;;8.00;2.80;;;;;;;8.49;66.86;99314.90;216840;1264;137936;-71
2023/02/18 11:34:05;;;;;;;3.30;1.40;;;;;;;8.58;66.55;99298.19;217106;1263;139139;-71
2023/02/18 11:39:28;;;;;;;4.50;2.00;;;;;;;8.61;66.23;99295.27;217791;1259;139616;-72
2023/02/18 11:44:36;;;;;;;4.90;1.80;;;;;;;8.59;65.83;99284.50;216978;1263;138154;-71
2023/02/18 11:49:58;;;;;;;8.20;2.60;;;;;;;8.58;65.66;99258.56;217425;1263;137532;-71
2023/02/18 11:55:13;;;;;;;1.70;1.20;;;;;;;8.59;65.71;99246.70;217135;1263;138821;-70
2023/02/18 12:00:22;;;;;;;6.10;2.00;;;;;;;8.65;65.34;99238.50;216996;1260;139024;-71
2023/02/18 12:05:27;;;;;;;3.60;2.80;;;;;;;8.73;65.04;99240.71;217805;1260;139191;-71
2023/02/18 12:10:49;;;;;;;4.20;1.40;;;;;;;8.80;64.76;99242.79;216917;1263;138004;-71
2023/02/18 12:16:10;;;;;;;6.30;1.90;;;;;;;8.84;64.44;99226.80;217045;1261;138099;-71
2023/02/18 12:21:36;;;;;;;6.20;2.40;;;;;;;8.80;64.27;99219.16;217433;1260;138609;-70
2023/02/18 12:27:15;;;;;;;11.10;4.60;;;;;;;8.79;64.12;99210.02;217104;1260;138408;-70
2023/02/18 12:32:52;;;;;;;7.50;2.40;;;;;;;8.75;64.01;99195.90;217001;1259;138496;-70
2023/02/18 12:38:05;;;;;;;3.60;1.20;;;;;;;8.67;64.29;99178.41;217024;1263;138006;-70
2023/02/18 12:43:33;;;;;;;9.70;2.70;;;;;;;8.61;63.75;99174.60;217190;1260;138457;-70
2023/02/18 12:48:54;;;;;;;3.60;2.70;;;;;;;8.53;63.53;99166.70;220528;1257;243510;-70
2023/02/18 12:54:28;;;;;;;5.50;3.40;;;;;;;8.44;63.21;99154.32;220620;1256;138310;-70
2023/02/18 12:59:43;;;;;;;8.00;2.60;;;;;;;8.45;63.19;99143.86;219174;1257;138611;-71
2023/02/18 13:04:57;;;;;;;6.60;3.40;;;;;;;8.36;63.01;99130.35;218048;1257;139118;-69
2023/02/18 13:10:08;;;;;;;6.10;3.50;;;;;;;8.23;63.22;99124.10;218606;1256;140269;-71
2023/02/18 13:15:33;;;;;;;8.60;2.20;;;;;;;8.12;63.22;99118.35;217646;1257;139365;-69
2023/02/18 13:20:59;;;;;;;2.10;1.60;;;;;;;7.92;63.30;99119.05;218445;1256;219685;-72
2023/02/18 13:26:12;;;;;;;1.80;1.20;;;;;;;7.72;63.62;99116.05;217585;1258;138391;-70
2023/02/18 13:31:46;;;;;;;4.40;1.80;;;;;;;7.62;63.93;99111.52;217591;1257;139602;-72
2023/02/18 13:36:55;;;;;;;7.40;1.60;;;;;;;7.57;64.65;99117.94;217678;1256;140183;-70
2023/02/18 13:42:17;;;;;;;3.80;1.30;;;;;;;7.49;64.93;99118.70;217681;1258;138503;-71
2023/02/18 13:47:44;;;;;;;3.90;2.00;;;;;;;7.26;64.78;99113.11;217652;1259;138399;-70
2023/02/18 13:52:50;;;;;;;4.60;1.90;;;;;;;7.07;65.62;99109.52;218176;1258;139678;-70
2023/02/18 13:57:55;;;;;;;4.70;1.90;;;;;;;6.92;66.18;99110.30;217493;1257;139333;-69
2023/02/18 14:03:17;;;;;;;3.90;1.40;;;;;;;6.75;66.94;99097.41;217605;1259;140013;-70
2023/02/18 14:08:35;;;;;;;2.90;1.20;;;;;;;6.53;67.83;99088.46;217835;1259;139783;-69
2023/02/18 14:13:43;;;;;;;3.80;1.60;;;;;;;6.39;68.87;99088.08;218427;1257;139969;-71
2023/02/18 14:18:58;;;;;;;2.70;1.80;;;;;;;6.20;69.52;99075.80;218692;1256;138882;-70
2023/02/18 14:24:06;;;;;;;3.10;1.60;;;;;;;5.97;70.10;99076.33;219081;1257;139795;-69
2023/02/18 14:29:30;;;;;;;5.80;2.30;;;;;;;5.80;70.69;99063.15;217471;1256;139191;-69
2023/02/18 14:35:03;;;;;;;4.00;2.40;;;;;;;5.72;71.14;99064.73;219622;1256;138222;-70
2023/02/18 14:40:32;;;;;;;3.00;1.50;;;;;;;5.64;71.93;99059.52;220609;1256;139027;-71
2023/02/18 14:45:59;;;;;;;2.30;1.60;;;;;;;5.46;72.06;99055.73;220589;1256;139577;-70
2023/02/18 14:51:05;;;;;;;1.90;1.70;;;;;;;5.35;72.64;99062.50;217775;1257;138925;-69
2023/02/18 14:56:15;;;;;;;5.70;2.20;;;;;;;5.25;73.33;99061.60;219143;1255;139381;-68
2023/02/18 15:01:21;;;;;;;3.50;2.10;;;;;;;5.10;73.46;99063.08;218276;1257;138793;-69
2023/02/18 15:06:37;;;;;;;1.80;1.70;;;;;;;5.01;73.76;99053.06;217932;1259;139219;-68
2023/02/18 15:11:51;;;;;;;1.60;1.30;;;;;;;4.90;74.28;99055.09;218379;1257;141107;-70
2023/02/18 15:16:58;;;;;;;1.60;1.50;;;;;;;4.79;74.41;99050.92;217605;1257;138179;-70
2023/02/18 15:22:03;;;;;;;1.70;1.50;;;;;;;4.70;74.91;99050.57;217459;1256;139176;-69
2023/02/18 15:27:16;;;;;;;1.70;1.50;;;;;;;4.67;75.22;99059.64;217534;1257;139172;-69
2023/02/18 15:32:27;;;;;;;1.90;1.10;;;;;;;4.51;75.33;99053.90;217419;1256;139884;-70
2023/02/18 15:37:38;;;;;;;1.90;1.20;;;;;;;4.42;75.80;99046.80;217399;1259;139650;-69
2023/02/18 15:42:48;;;;;;;2.20;1.20;;;;;;;4.33;76.22;99039.17;217659;1256;138228;-69
2023/02/18 15:47:55;;;;;;;2.70;1.00;;;;;;;4.29;76.33;99029.41;217456;1257;139971;-69
2023/02/18 15:53:08;;;;;;;;;;;;;;;4.28;76.68;99033.05;217726;1256;139622;-70
2023/02/18 15:58:33;;;;;;;2.70;1.80;;;;;;;4.26;77.22;99027.71;219053;1256;124946;-68
2023/02/18 16:03:40;;;;;;;1.90;1.20;;;;;;;4.26;77.40;99010.09;217850;1256;139094;-69
2023/02/18 16:09:07;;;;;;;;;;;;;;;4.21;77.31;99001.11;217525;1256;138813;-70
2023/02/18 16:14:49;;;;;;;2.90;1.50;;;;;;;4.18;77.78;98995.55;218507;1257;125745;-69
2023/02/18 16:20:00;;;;;;;2.40;1.40;;;;;;;4.14;77.94;98990.30;216913;1257;139488;-68
2023/02/18 16:25:21;;;;;;;1.90;1.70;;;;;;;4.18;78.13;98987.81;218377;1257;138783;-69
2023/02/18 16:30:34;;;;;;;1.30;1.20;;;;;;;4.21;78.53;98979.73;217945;1256;139009;-69
2023/02/18 16:35:41;;;;;;;2.90;2.60;;;;;;;4.19;78.60;98977.38;219018;1256;140782;-69
2023/02/18 16:40:56;;;;;;;4.90;2.20;;;;;;;4.21;78.92;98976.67;218284;1259;138351;-69
2023/02/18 16:46:14;;;;;;;3.70;2.10;;;;;;;4.28;78.80;98978.29;220585;1256;141198;-70
2023/02/18 16:51:28;;;;;;;2.60;2.00;;;;;;;4.35;78.87;98977.10;220059;1256;138875;-69
2023/02/18 16:56:34;;;;;;;4.60;3.50;;;;;;;4.37;79.14;98980.33;219010;1256;138247;-69
2023/02/18 17:01:43;;;;;;;4.20;2.10;;;;;;;4.40;79.32;98979.98;217658;1256;138599;-69
2023/02/18 17:06:48;;;;;;;8.00;5.00;;;;;;;4.45;79.43;98977.61;217647;1257;139339;-68
2023/02/18 17:11:55;;;;;;;8.70;6.80;;;;;;;4.44;79.05;98974.77;219528;1256;138813;-69
2023/02/18 17:17:00;;;;;;;10.10;6.40;;;;;;;4.39;79.59;98978.70;217696;1259;138908;-69
2023/02/18 17:22:14;;;;;;;6.60;5.10;;;;;;;4.35;79.66;98977.87;217372;1256;139063;-70
2023/02/18 17:27:20;;;;;;;8.40;5.60;;;;;;;4.36;79.75;98977.02;218251;1259;141662;-69
2023/02/18 17:32:25;;;;;;;7.10;5.50;;;;;;;4.38;80.01;98973.95;217398;1257;139706;-68
2023/02/18 17:37:29;;;;;;;7.60;5.30;;;;;;;4.36;79.78;98973.31;217645;1259;138873;-68
2023/02/18 17:42:34;;;;;;;7.40;5.20;;;;;;;4.27;79.92;98958.73;217799;1257;138586;-68
2023/02/18 17:47:39;;;;;;;6.70;3.80;;;;;;;4.22;80.38;98966.93;218171;1256;138818;-67
2023/02/18 17:52:45;;;;;;;8.60;4.60;;;;;;;4.25;80.15;98976.13;217938;1258;139161;-68
2023/02/18 17:57:50;;;;;;;7.00;5.40;;;;;;;4.28;80.17;98983.88;217533;1257;220623;-70
2023/02/18 18:02:54;;;;;;;13.00;6.20;;;;;;;4.28;80.17;98991.88;217417;1257;138737;-67
2023/02/18 18:07:59;;;;;;;7.20;4.20;;;;;;;4.26;80.40;99002.13;217453;1257;139299;-69
2023/02/18 18:13:06;;;;;;;7.70;5.40;;;;;;;4.19;80.52;99009.59;217502;1257;138510;-69
2023/02/18 18:18:12;;;;;;;10.20;6.10;;;;;;;4.21;80.39;99022.45;218663;1256;139224;-68
2023/02/18 18:23:18;;;;;;;7.10;4.60;;;;;;;4.20;80.34;99028.70;217793;1256;139302;-70
2023/02/18 18:28:27;;;;;;;12.10;6.50;;;;;;;4.14;80.47;99034.41;218525;1256;140018;-69
2023/02/18 18:33:34;;;;;;;10.90;4.90;;;;;;;4.11;80.77;99040.10;219661;1255;139032;-69
2023/02/18 18:38:39;;;;;;;13.10;6.50;;;;;;;4.12;80.72;99037.49;220556;1255;139521;-70
2023/02/18 18:43:45;;;;;;;7.20;4.70;;;;;;;4.11;80.69;99033.33;218428;1256;139486;-69
2023/02/18 18:48:49;;;;;;;13.60;6.80;;;;;;;4.04;80.63;99024.51;218352;1257;139357;-69
2023/02/18 18:53:53;;;;;;;8.00;5.20;;;;;;;3.99;81.06;99047.98;220707;1256;139264;-68
2023/02/18 18:58:59;;;;;;;7.30;4.70;;;;;;;3.98;81.23;99070.01;219894;1256;139174;-69
2023/02/18 19:04:02;;;;;;;5.70;4.80;;;;;;;4.00;80.96;99086.42;218290;1256;140270;-70
2023/02/18 19:09:06;;;;;;;9.70;5.10;;;;;;;4.00;81.15;99091.38;217818;1259;139656;-68
2023/02/18 19:14:13;;;;;;;6.60;5.60;;;;;;;3.98;81.40;99089.93;217562;1255;138878;-68
2023/02/18 19:19:19;;;;;;;6.50;4.00;;;;;;;3.95;81.38;99095.88;218499;1256;138702;-69
2023/02/18 19:24:23;;;;;;;6.10;4.20;;;;;;;3.94;81.23;99095.92;218014;1256;139018;-69
2023/02/18 19:29:27;;;;;;;7.40;5.20;;;;;;;3.93;81.58;99102.61;218193;1257;139680;-70
2023/02/18 19:34:30;;;;;;;5.50;5.00;;;;;;;3.87;81.56;99112.04;217649;1257;138694;-68
2023/02/18 19:39:34;;;;;;;4.60;3.90;;;;;;;3.78;81.70;99107.75;217528;1259;140866;-68
2023/02/18 19:44:38;;;;;;;7.80;4.80;;;;;;;3.72;82.02;99117.45;217405;1257;139741;-69
2023/02/18 19:49:42;;;;;;;6.60;5.00;;;;;;;3.73;81.95;99141.63;217628;1256;140087;-69
2023/02/18 19:54:46;;;;;;;7.20;4.90;;;;;;;3.71;81.99;99140.69;217716;1259;140235;-68
2023/02/18 19:59:51;;;;;;;7.70;5.00;;;;;;;3.63;82.08;99139.98;217686;1257;139165;-71
2023/02/18 20:04:55;;;;;;;8.90;5.00;;;;;;;3.56;82.27;99152.39;217594;1257;138475;-67
2023/02/18 20:10:01;;;;;;;8.80;7.10;;;;;;;3.61;82.41;99150.04;218988;1256;139144;-70
2023/02/18 20:15:07;;;;;;;13.80;6.70;;;;;;;3.64;82.31;99168.69;217493;1259;141258;-69
2023/02/18 20:20:11;;;;;;;10.40;6.70;;;;;;;3.61;82.41;99189.09;218921;1259;139738;-68
2023/02/18 20:25:16;;;;;;;9.50;7.10;;;;;;;3.54;82.51;99195.29;219293;1256;140252;-70
2023/02/18 20:30:20;;;;;;;7.10;5.10;;;;;;;3.52;82.63;99210.69;218698;1256;139483;-71
2023/02/18 20:35:25;;;;;;;10.20;7.10;;;;;;;3.52;82.47;99222.61;217658;1257;139741;-69
2023/02/18 20:40:29;;;;;;;7.20;5.60;;;;;;;3.49;82.63;99229.37;220319;1256;140186;-69
2023/02/18 20:45:34;;;;;;;9.20;5.30;;;;;;;3.48;82.88;99233.67;220639;1256;139999;-70
2023/02/18 20:50:37;;;;;;;6.10;4.60;;;;;;;3.49;82.50;99244.98;219577;1256;140163;-69
2023/02/18 20:55:46;;;;;;;11.10;6.80;;;;;;;3.40;82.53;99257.23;217638;1256;139197;-70
2023/02/18 21:01:08;;;;;;;8.30;6.10;;;;;;;3.33;82.79;99257.77;219935;1256;139226;-68
2023/02/18 21:06:18;;;;;;;7.70;5.00;;;;;;;3.32;82.89;99249.99;219155;1259;138338;-69
2023/02/18 21:11:26;;;;;;;5.80;5.20;;;;;;;3.28;82.62;99261.85;217550;1257;139868;-68
2023/02/18 21:16:37;;;;;;;12.00;5.50;;;;;;;3.16;82.71;99272.66;217987;1257;138774;-69
2023/02/18 21:21:43;;;;;;;7.30;5.60;;;;;;;3.07;82.89;99277.25;217648;1259;138875;-69
2023/02/18 21:26:47;;;;;;;7.20;5.00;;;;;;;3.04;82.92;99283.70;217487;1259;140005;-70
2023/02/18 21:31:51;;;;;;;8.50;6.00;;;;;;;3.01;82.88;99294.55;217351;1259;140155;-70
2023/02/18 21:36:55;;;;;;;7.30;4.40;;;;;;;2.97;83.04;99304.38;217467;1257;139612;-70
2023/02/18 21:41:59;;;;;;;8.60;5.10;;;;;;;2.87;82.87;99308.89;218161;1259;138452;-68
2023/02/18 21:47:03;;;;;;;7.90;6.10;;;;;;;2.81;83.11;99305.82;217638;1259;138888;-68
2023/02/18 21:52:10;;;;;;;9.10;6.30;;;;;;;2.80;83.10;99309.58;218269;1256;139987;-65
2023/02/18 21:57:16;;;;;;;11.30;7.50;;;;;;;2.80;83.42;99337.68;218643;1257;138651;-66
2023/02/18 22:02:30;;;;;;;12.10;5.90;;;;;;;2.82;83.67;99347.41;218700;1256;143055;-69
2023/02/18 22:07:36;;;;;;;8.00;6.20;;;;;;;2.84;83.61;99353.30;217520;1256;139012;-71
2023/02/18 22:12:41;;;;;;;7.70;5.80;;;;;;;2.89;83.79;99348.77;218022;1256;138824;-70
2023/02/18 22:17:46;;;;;;;6.00;4.70;;;;;;;2.88;83.86;99360.49;217907;1256;139092;-66
2023/02/18 22:22:53;;;;;;;10.50;6.20;;;;;;;2.88;83.99;99356.00;219205;1258;138642;-67
2023/02/18 22:27:58;;;;;;;7.30;6.00;;;;;;;2.95;84.15;99374.52;218804;1257;420742;-70
2023/02/18 22:33:03;;;;;;;10.30;7.10;;;;;;;2.95;84.20;99391.17;217977;1256;139479;-70
2023/02/18 22:38:08;;;;;;;10.30;7.00;;;;;;;2.93;84.14;99397.14;220254;1256;148574;-68
2023/02/18 22:43:12;;;;;;;10.40;6.20;;;;;;;2.98;84.20;99400.17;217804;1259;141924;-67
2023/02/18 22:48:16;;;;;;;8.80;6.20;;;;;;;3.02;84.16;99409.11;217397;1257;139137;-68
2023/02/18 22:53:23;;;;;;;10.90;7.50;;;;;;;2.96;84.25;99415.18;218592;1261;138939;-70
2023/02/18 22:58:27;;;;;;;9.90;6.20;;;;;;;2.97;84.35;99412.77;217746;1257;139579;-69
2023/02/18 23:03:30;;;;;;;6.10;5.00;;;;;;;2.98;84.22;99415.93;218262;1256;138934;-70
2023/02/18 23:08:35;;;;;;;10.20;5.90;;;;;;;2.95;84.38;99421.18;217793;1256;139648;-71
2023/02/18 23:13:41;;;;;;;10.60;5.50;;;;;;;2.96;84.47;99442.70;218223;1257;141450;-69
2023/02/18 23:18:45;;;;;;;10.40;5.10;;;;;;;2.96;84.32;99443.88;217975;1256;140506;-68
2023/02/18 23:23:53;;;;;;;7.00;4.90;;;;;;;2.94;84.17;99447.34;218143;1256;140111;-70
2023/02/18 23:28:57;;;;;;;4.40;3.50;;;;;;;2.93;84.23;99448.70;218061;1259;138693;-70
2023/02/18 23:34:01;;;;;;;8.00;5.60;;;;;;;2.91;84.13;99451.20;217529;1257;139194;-70
2023/02/18 23:39:07;;;;;;;7.20;4.30;;;;;;;2.93;84.13;99456.89;217290;1257;143322;-67
2023/02/18 23:44:15;;;;;;;7.10;4.60;;;;;;;2.90;84.02;99449.94;217309;1256;138744;-70
2023/02/18 23:49:22;;;;;;;8.60;4.20;;;;;;;2.86;84.06;99446.74;217731;1259;139660;-69
2023/02/18 23:54:32;;;;;;;10.40;5.40;;;;;;;2.88;84.21;99437.93;218415;1259;138953;-71
2023/02/18 23:59:37;;;;;;;5.80;4.30;;;;;;;2.86;84.14;99430.10;218093;1259;139153;-68
